createdAt,value
2022-09-25T00:01:37.541Z,59.83
2022-09-25T00:04:12.197Z,59.26
2022-09-25T00:06:41.603Z,59.34
2022-09-25T00:09:14.370Z,59.61
2022-09-25T00:11:42.704Z,59.89
2022-09-25T00:14:11.852Z,60.08
2022-09-25T00:16:41.610Z,59.93
2022-09-25T00:19:28.420Z,60.33
2022-09-25T00:22:00.473Z,60.29
2022-09-25T00:24:30.105Z,60.47
2022-09-25T00:27:06.088Z,60.05
2022-09-25T00:29:41.798Z,59.69
2022-09-25T00:32:11.167Z,59.98
2022-09-25T00:34:41.871Z,59.74
2022-09-25T00:37:10.448Z,60.20
2022-09-25T00:39:47.796Z,60.45
2022-09-25T00:42:16.395Z,60.44
2022-09-25T00:44:52.392Z,60.01
2022-09-25T00:47:30.654Z,60.55
2022-09-25T00:49:58.973Z,60.96
2022-09-25T00:52:30.317Z,60.67
2022-09-25T00:55:00.253Z,60.62
2022-09-25T00:57:30.574Z,60.72
2022-09-25T01:00:00.044Z,60.79
2022-09-25T01:02:29.723Z,60.78
2022-09-25T01:05:01.267Z,60.79
2022-09-25T01:07:30.343Z,61.02
2022-09-25T01:10:02.407Z,60.84
2022-09-25T01:12:41.626Z,61.00
2022-09-25T01:15:14.536Z,61.25
2022-09-25T01:17:56.802Z,61.60
2022-09-25T01:20:33.585Z,61.79
2022-09-25T01:23:05.466Z,61.34
2022-09-25T01:25:43.104Z,61.39
2022-09-25T01:28:16.865Z,61.35
2022-09-25T01:30:47.190Z,61.87
2022-09-25T01:33:16.185Z,61.82
2022-09-25T01:35:48.754Z,61.53
2022-09-25T01:38:24.111Z,61.78
2022-09-25T01:40:57.044Z,61.74
2022-09-25T01:43:31.367Z,61.97
2022-09-25T01:46:01.606Z,61.98
2022-09-25T01:48:32.603Z,62.65
2022-09-25T01:51:01.502Z,61.99
2022-09-25T01:53:33.624Z,62.07
2022-09-25T01:56:02.680Z,61.89
2022-09-25T01:58:35.123Z,61.69
2022-09-25T02:01:06.503Z,62.21
2022-09-25T02:03:36.457Z,61.69
2022-09-25T02:06:05.539Z,61.95
2022-09-25T02:08:38.141Z,62.09
2022-09-25T02:11:06.906Z,61.19
2022-09-25T02:13:37.551Z,61.51
2022-09-25T02:16:08.437Z,61.73
2022-09-25T02:18:54.734Z,61.37
2022-09-25T02:21:25.174Z,61.07
2022-09-25T02:23:54.282Z,61.27
2022-09-25T02:26:25.742Z,61.58
2022-09-25T02:28:54.924Z,61.30
2022-09-25T02:31:28.890Z,61.24
2022-09-25T02:33:57.596Z,61.29
2022-09-25T02:36:26.189Z,61.37
2022-09-25T02:38:54.664Z,61.63
2022-09-25T02:41:29.617Z,62.47
2022-09-25T02:44:01.545Z,62.18
2022-09-25T02:46:33.497Z,61.35
2022-09-25T02:49:06.618Z,61.23
2022-09-25T02:51:41.873Z,61.63
2022-09-25T02:54:16.765Z,61.99
2022-09-25T02:56:46.318Z,61.76
2022-09-25T02:59:16.021Z,61.93
2022-09-25T03:01:47.021Z,62.07
2022-09-25T03:04:19.271Z,62.05
2022-09-25T03:06:47.855Z,62.30
2022-09-25T03:09:17.500Z,62.20
2022-09-25T03:11:45.985Z,62.64
2022-09-25T03:14:15.170Z,62.50
2022-09-25T03:16:47.834Z,62.88
2022-09-25T03:19:22.160Z,62.93
2022-09-25T03:21:51.144Z,62.84
2022-09-25T03:24:20.507Z,63.02
2022-09-25T03:26:48.845Z,63.03
2022-09-25T03:29:17.682Z,63.99
2022-09-25T03:31:50.767Z,63.51
2022-09-25T03:34:22.773Z,63.47
2022-09-25T03:36:51.354Z,63.31
2022-09-25T03:39:22.249Z,63.36
2022-09-25T03:41:53.949Z,63.09
2022-09-25T03:44:24.628Z,63.63
2022-09-25T03:46:54.527Z,63.69
2022-09-25T03:49:27.093Z,63.36
2022-09-25T03:51:56.608Z,63.16
2022-09-25T03:56:58.651Z,63.70
2022-09-25T03:59:32.236Z,63.61
2022-09-25T04:02:02.762Z,63.60
2022-09-25T04:04:32.634Z,63.24
2022-09-25T04:07:00.966Z,64.79
2022-09-25T04:09:32.159Z,63.30
2022-09-25T04:12:05.792Z,63.57
2022-09-25T04:14:36.978Z,63.81
2022-09-25T04:17:06.950Z,64.13
2022-09-25T04:19:37.225Z,64.09
2022-09-25T04:22:05.805Z,64.01
2022-09-25T04:24:52.488Z,63.62
2022-09-25T04:27:22.258Z,63.70
2022-09-25T04:29:50.754Z,63.75
2022-09-25T04:32:38.263Z,63.71
2022-09-25T04:35:17.950Z,63.34
2022-09-25T04:37:49.344Z,63.40
2022-09-25T04:40:18.011Z,63.82
2022-09-25T04:42:49.793Z,63.17
2022-09-25T04:45:21.764Z,62.84
2022-09-25T04:47:51.812Z,63.12
2022-09-25T04:50:20.423Z,63.21
2022-09-25T04:52:49.925Z,62.54
2022-09-25T04:55:18.265Z,62.55
2022-09-25T04:57:59.187Z,62.85
2022-09-25T05:00:36.578Z,62.76
2022-09-25T05:03:07.022Z,62.94
2022-09-25T05:05:37.162Z,63.47
2022-09-25T05:08:06.110Z,63.35
2022-09-25T05:10:39.729Z,63.32
2022-09-25T05:13:09.111Z,62.90
2022-09-25T05:15:38.581Z,63.11
2022-09-25T05:18:09.217Z,63.05
2022-09-25T05:20:39.397Z,62.79
2022-09-25T05:23:07.680Z,62.97
2022-09-25T05:25:42.502Z,63.00
2022-09-25T05:28:11.237Z,63.30
2022-09-25T05:30:43.701Z,63.41
2022-09-25T05:33:13.621Z,63.16
2022-09-25T05:35:48.479Z,63.21
2022-09-25T05:38:17.051Z,63.06
2022-09-25T05:40:45.895Z,62.86
2022-09-25T05:43:16.360Z,62.32
2022-09-25T05:45:45.972Z,62.18
2022-09-25T05:48:17.556Z,62.18
2022-09-25T05:50:47.309Z,61.85
2022-09-25T05:53:15.671Z,61.87
2022-09-25T05:55:44.221Z,61.77
2022-09-25T05:58:16.281Z,62.25
2022-09-25T06:00:44.622Z,62.18
2022-09-25T06:03:19.638Z,62.58
2022-09-25T06:05:53.587Z,62.32
2022-09-25T06:08:22.162Z,61.82
2022-09-25T06:10:56.420Z,62.12
2022-09-25T06:13:25.417Z,61.85
2022-09-25T06:15:57.404Z,61.82
2022-09-25T06:18:27.605Z,61.36
2022-09-25T06:21:00.161Z,61.26
2022-09-25T06:23:29.443Z,61.39
2022-09-25T06:26:01.154Z,61.23
2022-09-25T06:28:31.028Z,61.28
2022-09-25T06:31:01.022Z,61.57
2022-09-25T06:33:31.187Z,61.13
2022-09-25T06:36:01.370Z,61.04
2022-09-25T06:38:30.022Z,61.09
2022-09-25T06:41:04.298Z,60.61
2022-09-25T06:43:32.933Z,60.49
2022-09-25T06:46:04.342Z,60.31
2022-09-25T06:48:34.355Z,60.38
2022-09-25T06:51:03.279Z,60.37
2022-09-25T06:53:33.835Z,60.34
2022-09-25T06:56:06.948Z,59.94
2022-09-25T06:58:36.137Z,59.94
2022-09-25T07:01:11.935Z,59.63
2022-09-25T07:03:53.328Z,59.40
2022-09-25T07:06:23.171Z,59.12
2022-09-25T07:08:52.142Z,58.90
2022-09-25T07:11:21.333Z,58.22
2022-09-25T07:13:55.298Z,58.93
2022-09-25T07:16:24.590Z,57.80
2022-09-25T07:18:58.529Z,56.90
2022-09-25T07:21:29.440Z,57.01
2022-09-25T07:24:04.836Z,57.98
2022-09-25T07:26:43.253Z,57.92
2022-09-25T07:29:12.699Z,58.15
2022-09-25T07:31:41.146Z,56.89
2022-09-25T07:34:12.949Z,57.57
2022-09-25T07:36:42.815Z,57.73
2022-09-25T07:39:16.114Z,57.26
2022-09-25T07:41:50.066Z,56.79
2022-09-25T07:44:28.581Z,55.49
2022-09-25T07:47:06.073Z,56.55
2022-09-25T07:49:40.243Z,56.73
2022-09-25T07:52:10.547Z,55.60
2022-09-25T07:54:38.952Z,56.18
2022-09-25T07:57:10.578Z,56.38
2022-09-25T07:59:39.125Z,56.44
2022-09-25T08:02:10.334Z,55.79
2022-09-25T08:04:40.334Z,55.43
2022-09-25T08:07:09.752Z,55.06
2022-09-25T08:09:41.854Z,54.54
2022-09-25T08:12:16.470Z,52.65
2022-09-25T08:14:45.051Z,53.19
2022-09-25T08:17:17.868Z,53.16
2022-09-25T08:19:47.817Z,53.19
2022-09-25T08:22:19.634Z,53.77
2022-09-25T08:24:48.761Z,53.10
2022-09-25T08:27:17.364Z,52.96
2022-09-25T08:29:46.603Z,53.28
2022-09-25T08:32:17.543Z,53.47
2022-09-25T08:34:50.203Z,53.14
2022-09-25T08:37:22.571Z,53.26
2022-09-25T08:39:52.883Z,53.80
2022-09-25T08:42:28.262Z,53.43
2022-09-25T08:45:21.110Z,53.20
2022-09-25T08:48:15.049Z,53.15
2022-09-25T08:50:44.894Z,52.81
2022-09-25T08:53:18.418Z,52.30
2022-09-25T08:56:04.157Z,50.97
2022-09-25T08:58:36.870Z,51.86
2022-09-25T09:01:06.047Z,51.36
2022-09-25T09:03:38.222Z,51.82
2022-09-25T09:06:08.705Z,51.57
2022-09-25T09:08:42.801Z,51.42
2022-09-25T09:11:13.680Z,51.64
2022-09-25T09:13:49.537Z,50.95
2022-09-25T09:16:21.363Z,52.14
2022-09-25T09:18:50.443Z,52.24
2022-09-25T09:21:29.060Z,52.27
2022-09-25T09:24:01.936Z,51.94
2022-09-25T09:26:32.844Z,52.50
2022-09-25T09:29:05.439Z,53.14
2022-09-25T09:31:37.370Z,52.40
2022-09-25T09:34:14.658Z,53.04
2022-09-25T09:36:53.009Z,53.64
2022-09-25T09:39:23.295Z,53.18
2022-09-25T09:41:58.312Z,52.67
2022-09-25T09:44:35.950Z,51.95
2022-09-25T09:47:05.962Z,52.98
2022-09-25T09:49:38.238Z,53.33
2022-09-25T09:52:10.500Z,53.38
2022-09-25T09:54:44.199Z,53.77
2022-09-25T09:57:21.699Z,54.12
2022-09-25T09:59:55.228Z,53.99
2022-09-25T10:02:43.930Z,54.87
2022-09-25T10:05:17.870Z,55.55
2022-09-25T10:07:50.110Z,56.22
2022-09-25T10:10:19.132Z,56.56
2022-09-25T10:12:48.347Z,57.50
2022-09-25T10:15:27.651Z,57.15
2022-09-25T10:17:59.178Z,57.11
2022-09-25T10:20:37.683Z,59.02
2022-09-25T10:23:10.880Z,58.49
2022-09-25T10:25:42.814Z,59.02
2022-09-25T10:28:26.962Z,57.92
2022-09-25T10:30:56.159Z,58.13
2022-09-25T10:33:26.114Z,57.59
2022-09-25T10:35:59.621Z,57.49
2022-09-25T10:38:33.657Z,58.07
2022-09-25T10:41:10.434Z,58.34
2022-09-25T10:43:51.225Z,58.43
2022-09-25T10:46:48.382Z,58.14
2022-09-25T10:49:36.210Z,57.96
2022-09-25T10:52:09.676Z,59.15
2022-09-25T10:54:45.443Z,59.73
2022-09-25T10:57:17.268Z,59.56
2022-09-25T10:59:48.584Z,58.87
2022-09-25T11:02:20.818Z,59.00
2022-09-25T11:04:52.249Z,57.91
2022-09-25T11:07:22.604Z,57.54
2022-09-25T11:09:59.176Z,56.76
2022-09-25T11:12:29.905Z,56.84
2022-09-25T11:15:02.426Z,56.29
2022-09-25T11:17:32.715Z,55.88
2022-09-25T11:20:12.696Z,54.49
2022-09-25T11:22:44.951Z,55.79
2022-09-25T11:25:16.601Z,55.63
2022-09-25T11:27:47.212Z,55.39
2022-09-25T11:30:17.448Z,56.35
2022-09-25T11:32:52.839Z,56.12
2022-09-25T11:35:36.905Z,56.97
2022-09-25T11:38:09.851Z,57.11
2022-09-25T11:41:01.312Z,58.26
2022-09-25T11:43:40.316Z,59.53
2022-09-25T11:46:19.405Z,58.99
2022-09-25T11:48:50.977Z,58.75
2022-09-25T11:51:25.003Z,59.13
2022-09-25T11:53:57.333Z,59.84
2022-09-25T11:56:38.439Z,60.52
2022-09-25T11:59:16.277Z,60.18
2022-09-25T12:01:46.747Z,60.63
2022-09-25T12:04:41.692Z,60.88
2022-09-25T12:07:17.146Z,61.01
2022-09-25T12:09:51.404Z,62.47
2022-09-25T12:12:25.042Z,62.27
2022-09-25T12:14:55.936Z,62.66
2022-09-25T12:17:27.545Z,62.97
2022-09-25T12:19:58.145Z,63.64
2022-09-25T12:22:28.708Z,64.61
2022-09-25T12:25:07.157Z,64.94
2022-09-25T12:27:46.345Z,64.10
2022-09-25T12:30:18.771Z,64.29
2022-09-25T12:33:05.262Z,64.40
2022-09-25T12:35:35.355Z,64.55
2022-09-25T12:38:06.027Z,64.83
2022-09-25T12:40:36.030Z,65.22
2022-09-25T12:43:14.773Z,64.85
2022-09-25T12:45:50.010Z,65.38
2022-09-25T12:48:20.515Z,65.97
2022-09-25T12:50:51.610Z,65.69
2022-09-25T12:53:23.691Z,66.00
2022-09-25T12:55:54.197Z,66.40
2022-09-25T12:58:26.167Z,67.92
2022-09-25T13:00:56.377Z,67.41
2022-09-25T13:03:25.250Z,68.14
2022-09-25T13:05:59.128Z,66.71
2022-09-25T13:08:29.019Z,66.31
2022-09-25T13:10:58.151Z,66.02
2022-09-25T13:13:28.257Z,67.08
2022-09-25T13:15:57.658Z,67.85
2022-09-25T13:18:27.185Z,68.76
2022-09-25T13:20:56.530Z,69.44
2022-09-25T13:23:29.086Z,69.38
2022-09-25T13:26:01.775Z,69.50
2022-09-25T13:28:32.969Z,69.49
2022-09-25T13:31:06.701Z,69.13
2022-09-25T13:33:50.587Z,69.03
2022-09-25T13:36:44.487Z,69.38
2022-09-25T13:39:43.867Z,69.83
2022-09-25T13:42:17.479Z,69.94
2022-09-25T13:44:52.523Z,69.48
2022-09-25T13:47:41.309Z,69.99
2022-09-25T13:50:25.239Z,70.03
2022-09-25T13:53:18.468Z,69.62
2022-09-25T13:56:06.293Z,69.87
2022-09-25T13:58:52.777Z,70.47
2022-09-25T14:01:38.171Z,70.22
2022-09-25T14:04:19.665Z,69.85
2022-09-25T14:06:50.058Z,69.81
2022-09-25T14:09:21.971Z,69.35
2022-09-25T14:11:57.869Z,69.46
2022-09-25T14:14:29.463Z,69.55
2022-09-25T14:17:03.196Z,70.61
2022-09-25T14:19:32.874Z,69.61
2022-09-25T14:22:04.277Z,70.36
2022-09-25T14:24:33.559Z,70.72
2022-09-25T14:27:02.768Z,70.04
2022-09-25T14:29:32.031Z,70.68
2022-09-25T14:32:07.788Z,70.70
2022-09-25T14:34:46.474Z,70.74
2022-09-25T14:37:20.129Z,70.39
2022-09-25T14:39:50.963Z,70.45
2022-09-25T14:42:37.479Z,71.02
2022-09-25T14:45:21.985Z,70.55
2022-09-25T14:47:57.621Z,71.73
2022-09-25T14:50:28.284Z,71.42
2022-09-25T14:52:58.184Z,72.58
2022-09-25T14:55:26.905Z,71.36
2022-09-25T14:57:57.061Z,70.49
2022-09-25T15:00:27.393Z,70.52
2022-09-25T15:03:02.681Z,70.72
2022-09-25T15:05:32.863Z,70.67
2022-09-25T15:08:02.323Z,71.13
2022-09-25T15:10:32.307Z,71.67
2022-09-25T15:13:07.283Z,71.71
2022-09-25T15:15:36.047Z,71.74
2022-09-25T15:18:04.893Z,72.28
2022-09-25T15:20:36.139Z,71.87
2022-09-25T15:23:05.149Z,72.02
2022-09-25T15:25:34.256Z,72.53
2022-09-25T15:28:06.023Z,71.54
2022-09-25T15:30:36.476Z,72.83
2022-09-25T15:33:13.052Z,72.36
2022-09-25T15:35:41.777Z,72.56
2022-09-25T15:38:12.273Z,72.33
2022-09-25T15:40:41.447Z,71.45
2022-09-25T15:43:12.388Z,70.86
2022-09-25T15:45:42.877Z,70.60
2022-09-25T15:48:16.785Z,72.95
2022-09-25T15:50:45.134Z,72.41
2022-09-25T15:53:21.980Z,73.96
2022-09-25T15:55:59.389Z,71.60
2022-09-25T15:58:28.049Z,71.17
2022-09-25T16:01:20.872Z,71.82
2022-09-25T16:04:09.829Z,72.71
2022-09-25T16:06:38.881Z,72.71
2022-09-25T16:09:12.167Z,73.15
2022-09-25T16:11:47.820Z,73.68
2022-09-25T16:14:20.926Z,73.06
2022-09-25T16:16:50.118Z,73.42
2022-09-25T16:19:32.346Z,73.80
2022-09-25T16:22:03.258Z,74.04
2022-09-25T16:24:32.169Z,73.56
2022-09-25T16:27:00.973Z,73.84
2022-09-25T16:29:36.061Z,73.74
2022-09-25T16:32:05.650Z,73.43
2022-09-25T16:34:40.007Z,72.33
2022-09-25T16:37:09.118Z,72.39
2022-09-25T16:39:38.074Z,72.18
2022-09-25T16:42:27.736Z,72.63
2022-09-25T16:45:03.747Z,73.09
2022-09-25T16:47:35.035Z,72.70
2022-09-25T16:50:07.406Z,73.99
2022-09-25T16:52:35.760Z,73.88
2022-09-25T16:55:06.265Z,73.21
2022-09-25T16:57:35.573Z,73.33
2022-09-25T17:00:07.377Z,72.53
2022-09-25T17:02:37.672Z,72.96
2022-09-25T17:05:09.362Z,72.86
2022-09-25T17:07:37.756Z,73.10
2022-09-25T17:10:12.892Z,74.04
2022-09-25T17:12:41.208Z,73.40
2022-09-25T17:15:15.075Z,73.42
2022-09-25T17:17:43.404Z,73.65
2022-09-25T17:20:13.479Z,73.52
2022-09-25T17:22:42.499Z,72.79
2022-09-25T17:25:24.359Z,73.46
2022-09-25T17:27:56.199Z,73.68
2022-09-25T17:30:24.546Z,74.24
2022-09-25T17:32:58.514Z,74.27
2022-09-25T17:35:48.054Z,74.79
2022-09-25T17:38:21.408Z,74.19
2022-09-25T17:40:50.231Z,74.51
2022-09-25T17:43:24.677Z,74.95
2022-09-25T17:45:55.646Z,75.43
2022-09-25T17:48:25.929Z,74.88
2022-09-25T17:50:54.759Z,74.75
2022-09-25T17:53:30.979Z,74.29
2022-09-25T17:56:00.202Z,74.30
2022-09-25T17:58:32.469Z,76.10
2022-09-25T18:01:08.779Z,75.60
2022-09-25T18:03:37.436Z,74.04
2022-09-25T18:06:11.661Z,73.96
2022-09-25T18:08:42.840Z,73.82
2022-09-25T18:11:12.601Z,73.89
2022-09-25T18:13:42.006Z,74.75
2022-09-25T18:16:21.548Z,74.55
2022-09-25T18:19:18.288Z,74.73
2022-09-25T18:22:04.460Z,74.10
2022-09-25T18:24:34.951Z,74.53
2022-09-25T18:27:04.918Z,74.61
2022-09-25T18:29:36.344Z,74.43
2022-09-25T18:32:10.748Z,74.90
2022-09-25T18:34:50.509Z,74.09
2022-09-25T18:37:37.238Z,75.03
2022-09-25T18:40:12.171Z,74.57
2022-09-25T18:42:40.631Z,74.85
2022-09-25T18:45:13.741Z,74.84
2022-09-25T18:47:42.535Z,74.74
2022-09-25T18:50:15.495Z,74.31
2022-09-25T18:52:46.569Z,74.54
2022-09-25T18:55:16.830Z,74.60
2022-09-25T18:57:45.176Z,73.97
2022-09-25T19:00:18.421Z,73.84
2022-09-25T19:02:47.183Z,75.05
2022-09-25T19:05:17.475Z,74.75
2022-09-25T19:07:45.855Z,74.18
2022-09-25T19:10:17.761Z,73.92
2022-09-25T19:12:47.424Z,74.73
2022-09-25T19:15:17.557Z,74.64
2022-09-25T19:17:46.335Z,74.55
2022-09-25T19:20:14.694Z,74.58
2022-09-25T19:22:52.370Z,74.47
2022-09-25T19:25:22.696Z,74.20
2022-09-25T19:27:52.898Z,73.85
2022-09-25T19:30:22.916Z,73.90
2022-09-25T19:32:51.777Z,73.87
2022-09-25T19:35:20.856Z,74.06
2022-09-25T19:37:52.937Z,73.10
2022-09-25T19:40:39.721Z,74.01
2022-09-25T19:43:11.246Z,73.86
2022-09-25T19:45:39.884Z,73.44
2022-09-25T19:48:14.636Z,73.48
2022-09-25T19:50:43.451Z,73.48
2022-09-25T19:53:12.199Z,73.35
2022-09-25T19:55:43.044Z,74.20
2022-09-25T19:58:17.802Z,73.78
2022-09-25T20:00:48.775Z,74.11
2022-09-25T20:03:26.710Z,74.85
2022-09-25T20:05:57.902Z,74.00
2022-09-25T20:08:26.558Z,73.74
2022-09-25T20:10:58.654Z,74.29
2022-09-25T20:13:28.903Z,74.48
2022-09-25T20:15:57.574Z,74.18
2022-09-25T20:18:27.617Z,74.19
2022-09-25T20:20:57.448Z,73.56
2022-09-25T20:23:29.175Z,74.06
2022-09-25T20:26:08.372Z,73.64
2022-09-25T20:28:44.033Z,74.19
2022-09-25T20:31:14.019Z,74.45
2022-09-25T20:33:45.978Z,74.09
2022-09-25T20:36:14.720Z,72.96
2022-09-25T20:38:50.362Z,73.98
2022-09-25T20:41:18.928Z,73.67
2022-09-25T20:43:53.779Z,74.31
2022-09-25T20:46:23.897Z,74.05
2022-09-25T20:49:02.126Z,74.01
2022-09-25T20:51:32.005Z,74.05
2022-09-25T20:54:03.296Z,74.67
2022-09-25T20:56:34.984Z,74.50
2022-09-25T20:59:05.127Z,73.85
2022-09-25T21:01:41.047Z,74.61
2022-09-25T21:04:10.030Z,74.33
2022-09-25T21:06:39.579Z,74.36
2022-09-25T21:09:08.364Z,74.39
2022-09-25T21:11:39.420Z,74.22
2022-09-25T21:14:11.245Z,75.07
2022-09-25T21:16:41.307Z,74.76
2022-09-25T21:19:12.298Z,74.46
2022-09-25T21:21:41.496Z,73.88
2022-09-25T21:24:11.464Z,74.69
2022-09-25T21:26:43.276Z,74.39
2022-09-25T21:29:13.564Z,74.06
2022-09-25T21:31:50.691Z,74.30
2022-09-25T21:34:20.205Z,73.42
2022-09-25T21:37:00.046Z,74.86
2022-09-25T21:39:29.801Z,73.53
2022-09-25T21:41:58.350Z,73.70
2022-09-25T21:44:30.790Z,73.44
2022-09-25T21:46:59.388Z,73.54
2022-09-25T21:49:31.458Z,73.18
2022-09-25T21:52:00.248Z,73.38
2022-09-25T21:54:33.220Z,73.16
2022-09-25T21:57:01.830Z,73.61
2022-09-25T21:59:33.358Z,73.31
2022-09-25T22:02:01.960Z,74.29
2022-09-25T22:04:31.633Z,74.91
2022-09-25T22:07:02.660Z,74.87
2022-09-25T22:09:33.086Z,74.43
2022-09-25T22:12:06.385Z,74.03
2022-09-25T22:14:40.666Z,74.17
2022-09-25T22:17:09.040Z,74.20
2022-09-25T22:19:42.097Z,74.33
2022-09-25T22:22:10.476Z,74.18
2022-09-25T22:24:43.038Z,74.01
2022-09-25T22:27:11.318Z,74.43
2022-09-25T22:29:43.777Z,75.49
2022-09-25T22:32:12.069Z,74.99
2022-09-25T22:34:41.587Z,74.95
2022-09-25T22:37:11.537Z,74.29
2022-09-25T22:39:45.206Z,73.79
2022-09-25T22:42:13.737Z,73.87
2022-09-25T22:44:48.814Z,73.31
2022-09-25T22:47:18.715Z,74.05
2022-09-25T22:49:50.454Z,74.98
2022-09-25T22:52:19.075Z,74.36
2022-09-25T22:54:48.277Z,74.28
2022-09-25T22:57:16.589Z,74.10
2022-09-25T22:59:46.123Z,73.72
2022-09-25T23:02:15.115Z,74.05
2022-09-25T23:04:49.644Z,74.49
2022-09-25T23:07:21.323Z,75.08
2022-09-25T23:09:52.584Z,74.70
2022-09-25T23:12:21.532Z,74.42
2022-09-25T23:14:55.051Z,75.35
2022-09-25T23:17:26.438Z,74.26
2022-09-25T23:19:56.874Z,73.90
2022-09-25T23:22:25.509Z,74.51
2022-09-25T23:24:54.643Z,73.44
2022-09-25T23:27:26.607Z,72.97
2022-09-25T23:30:01.746Z,73.59
2022-09-25T23:32:30.018Z,74.71
2022-09-25T23:35:02.550Z,73.58
2022-09-25T23:37:30.882Z,75.58
2022-09-25T23:40:05.812Z,75.09
2022-09-25T23:42:34.131Z,74.89
2022-09-25T23:45:06.163Z,73.87
2022-09-25T23:47:34.466Z,74.24
2022-09-25T23:50:05.355Z,75.34
2022-09-25T23:52:33.692Z,75.07
2022-09-25T23:55:07.910Z,74.98
2022-09-25T23:57:37.535Z,74.42
